Aérodrome :
LOGIN :

S'inscrire | Disclaimer

   EN    FR    IT 

 










Légende :    VFR   VFR Marginal   IFR   IFR Intensif   IFR Très Intensif
Visi : 
Plafond : 
>= 8 km
>= 3000ft
5 à 8 km
1000 à 3000 ft
1500m à 5 km
500 à 1000 ft
800 à 1500m
200 à 500 ft
< 800m
< 200 ft
Symboles :   Orages  Brouillard  Fortes neiges  Fortes précipitations  Vent > 20 kt
SIGMETs :   Divers  Orages  Givrage  Turbulence  Onde Orograph.  Cendres Volcan.







- Altitude de l'aérodrome : -15 ft
- Code IATA : RTM


EHRD - Rotterdam Zestienhoven

DERNIER METAR :
  • 211255Z AUTO 32011KT 270V010 9999 NCD 25/13 Q1012 NOSIG

METARs EXPIRÉS :
  • 211225Z AUTO 34010KT 260V020 9999 NCD 25/12 Q1012 NOSIG
  • 211155Z AUTO 34009KT 280V040 9999 NCD 25/14 Q1012 NOSIG
  • 211125Z AUTO 33009KT 250V020 9999 NCD 25/14 Q1012 NOSIG
  • 211055Z AUTO 34009KT 280V030 9999 NCD 24/14 Q1012 NOSIG
  • 211025Z AUTO 34009KT 280V030 9999 NCD 24/15 Q1011 NOSIG

TAF TAF EHRD
Valide du 21 à 12h jusqu'au 22 à 18h UTC


211057Z 2112/2218 32012KT 9999 FEW040
BECMG 2118/2121 35005KT CAVOK
PROB30
TEMPO 2202/2205 4000 MIFG
BECMG 2210/2212 30010KT
Pas de NOTAMs connus pour ce terrain.



MET'MAP, la Météo Aéronautique d'un coup d'oeil ! - Copyright ORBIFLY Décembre 2007 - Disclaimer

ORBIFLY MET'MAP TEAM :

Programmation & Développement : Alexandra Zaïnal
Conception & Développement : Baudouin d'Aumeries
Co-Programmation & Développement : Marc-Olivier Méhu
Soutien technique & logistique : Manuel Goepfert

Contact : metmap@orbifly.com




SOURCES & CREDITS :

   NOAA